Time;durP1;ratioP1;P1;durP2;ratioP2;P2;SDS_P1;SDS_P2;PMS_P1;PMS_P2;Temp;Humidity;BMP_temperature;BMP_pressure;BME280_temperature;BME280_humidity;BME280_pressure;Samples;Min_cycle;Max_cycle;Signal;HPM_P1;HPM_P2
2023/10/04 00:01:06;;;;;;;6.78;2.00;;;12.50;99.90;;;;;;5070246;28;20134;-80
2023/10/04 00:03:32;;;;;;;6.75;1.77;;;12.50;99.90;;;;;;5069913;28;20135;-78
2023/10/04 00:05:59;;;;;;;9.38;2.17;;;12.50;99.90;;;;;;5070375;28;20024;-78
2023/10/04 00:08:25;;;;;;;4.75;1.70;;;12.50;99.90;;;;;;5069714;28;20040;-77
2023/10/04 00:10:51;;;;;;;9.45;1.88;;;12.40;99.90;;;;;;5069876;28;20131;-78
2023/10/04 00:13:17;;;;;;;9.20;2.03;;;12.50;99.90;;;;;;5069901;28;20032;-78
2023/10/04 00:15:43;;;;;;;10.80;1.90;;;12.40;99.90;;;;;;5070559;28;20297;-78
2023/10/04 00:18:10;;;;;;;10.63;1.90;;;12.40;99.90;;;;;;5069490;28;20024;-80
2023/10/04 00:20:36;;;;;;;6.45;1.73;;;12.30;99.90;;;;;;5070068;28;20352;-79
2023/10/04 00:23:04;;;;;;;7.88;2.05;;;12.30;99.90;;;;;;5052028;28;20111;-78
2023/10/04 00:25:30;;;;;;;10.43;2.08;;;12.20;99.90;;;;;;5069285;28;20029;-78
2023/10/04 00:27:56;;;;;;;7.78;2.10;;;12.20;99.90;;;;;;5051911;28;20102;-78
2023/10/04 00:30:26;;;;;;;4.68;1.75;;;12.20;99.90;;;;;;5051570;28;20021;-79
2023/10/04 00:32:53;;;;;;;8.10;2.40;;;12.20;99.90;;;;;;5052137;28;20123;-79
2023/10/04 00:35:21;;;;;;;8.43;2.03;;;12.20;99.90;;;;;;5051224;28;20417;-79
2023/10/04 00:37:51;;;;;;;6.88;2.25;;;12.10;99.90;;;;;;5070084;28;20215;-79
2023/10/04 00:40:25;;;;;;;9.05;1.75;;;12.10;99.90;;;;;;5069282;28;20485;-80
2023/10/04 00:42:54;;;;;;;6.47;1.80;;;12.10;99.90;;;;;;5070085;28;20052;-78
2023/10/04 00:45:20;;;;;;;9.98;2.15;;;12.10;99.90;;;;;;5069291;28;20039;-79
2023/10/04 00:47:51;;;;;;;9.70;1.90;;;12.10;99.90;;;;;;5069965;28;20029;-77
2023/10/04 00:50:34;;;;;;;7.85;2.72;;;12.10;99.90;;;;;;5069262;28;20081;-77
2023/10/04 00:53:08;;;;;;;9.15;1.73;;;12.10;99.90;;;;;;5069846;28;20060;-78
2023/10/04 00:55:35;;;;;;;6.72;1.75;;;12.00;99.90;;;;;;5051398;28;20033;-79
2023/10/04 00:58:05;;;;;;;9.90;2.00;;;12.00;99.90;;;;;;5069577;28;20475;-78
2023/10/04 01:00:31;;;;;;;8.95;2.08;;;12.00;99.90;;;;;;5069367;28;20046;-78
2023/10/04 01:02:57;;;;;;;6.03;2.30;;;12.00;99.90;;;;;;5069393;28;20124;-79
2023/10/04 01:05:26;;;;;;;6.72;1.88;;;12.00;99.90;;;;;;5069241;28;20024;-78
2023/10/04 01:07:53;;;;;;;14.75;2.17;;;11.90;99.90;;;;;;5069798;28;20087;-78
2023/10/04 01:10:24;;;;;;;10.18;2.25;;;11.90;99.90;;;;;;5068950;28;20063;-78
2023/10/04 01:12:51;;;;;;;7.00;2.55;;;11.90;99.90;;;;;;5070355;28;20093;-79
2023/10/04 01:15:36;;;;;;;6.75;2.42;;;12.00;99.90;;;;;;5055050;28;20133;-79
2023/10/04 01:18:06;;;;;;;7.47;2.42;;;12.00;99.90;;;;;;5073759;28;20033;-78
2023/10/04 01:20:33;;;;;;;9.13;2.63;;;12.00;99.90;;;;;;5055322;28;20410;-79
2023/10/04 01:23:05;;;;;;;8.40;2.40;;;12.00;99.90;;;;;;5073938;28;20108;-79
2023/10/04 01:25:33;;;;;;;7.95;2.35;;;12.00;99.90;;;;;;5073369;28;20033;-80
2023/10/04 01:28:00;;;;;;;11.32;2.58;;;12.00;99.90;;;;;;5073393;28;20489;-80
2023/10/04 01:30:31;;;;;;;7.85;2.33;;;12.00;99.90;;;;;;5073460;28;20047;-79
2023/10/04 01:33:00;;;;;;;5.88;2.30;;;12.00;99.90;;;;;;5073405;28;20454;-79
2023/10/04 01:35:27;;;;;;;7.22;2.28;;;12.10;99.90;;;;;;5073290;28;20024;-79
2023/10/04 01:37:54;;;;;;;10.25;3.08;;;12.10;99.90;;;;;;5055893;28;20379;-79
2023/10/04 01:40:24;;;;;;;8.18;2.67;;;12.10;99.90;;;;;;5073286;28;20032;-79
2023/10/04 01:42:51;;;;;;;11.63;2.92;;;12.10;99.90;;;;;;5073277;28;20320;-79
2023/10/04 01:45:18;;;;;;;10.88;2.67;;;12.10;99.90;;;;;;5072826;28;20479;-79
2023/10/04 01:47:44;;;;;;;5.45;2.40;;;12.20;99.90;;;;;;5072991;28;20020;-78
2023/10/04 01:50:10;;;;;;;10.77;2.38;;;12.20;99.90;;;;;;5073638;28;20156;-79
2023/10/04 01:52:38;;;;;;;10.18;2.88;;;12.20;99.90;;;;;;5073052;28;20040;-78
2023/10/04 01:55:10;;;;;;;8.98;2.85;;;12.20;99.90;;;;;;5073440;28;20067;-79
2023/10/04 01:57:38;;;;;;;11.00;2.30;;;12.20;99.90;;;;;;5072398;28;20028;-78
2023/10/04 02:00:06;;;;;;;8.98;2.80;;;12.20;99.90;;;;;;5055476;28;20033;-79
2023/10/04 02:02:32;;;;;;;9.73;2.40;;;12.20;99.90;;;;;;5072625;28;20024;-76
2023/10/04 02:04:59;;;;;;;10.40;2.85;;;12.20;99.90;;;;;;5073301;28;20021;-78
2023/10/04 02:07:25;;;;;;;9.27;2.60;;;12.20;99.90;;;;;;5072660;28;20422;-78
2023/10/04 02:09:53;;;;;;;9.38;3.30;;;12.20;99.90;;;;;;5073110;28;20035;-78
2023/10/04 02:12:21;;;;;;;11.68;3.42;;;12.20;99.90;;;;;;5072149;28;20032;-78
2023/10/04 02:14:48;;;;;;;11.77;3.72;;;12.20;99.90;;;;;;5073230;28;20040;-78
2023/10/04 02:17:17;;;;;;;12.07;3.10;;;12.20;99.90;;;;;;5072616;28;20074;-78
2023/10/04 02:19:43;;;;;;;10.25;3.33;;;12.20;99.90;;;;;;5072494;28;20024;-78
2023/10/04 02:22:13;;;;;;;7.05;2.80;;;12.20;99.90;;;;;;5072670;28;20029;-78
2023/10/04 02:24:39;;;;;;;8.50;3.08;;;12.20;99.90;;;;;;5072142;28;20074;-78
2023/10/04 02:27:08;;;;;;;11.35;3.00;;;12.20;99.90;;;;;;5072022;28;20460;-78
2023/10/04 02:29:35;;;;;;;9.50;3.10;;;12.20;99.90;;;;;;5072023;28;20021;-78
2023/10/04 02:32:08;;;;;;;6.97;2.78;;;12.20;99.90;;;;;;5072222;28;20071;-78
2023/10/04 02:34:34;;;;;;;11.23;3.08;;;12.20;99.90;;;;;;5053959;28;20098;-78
2023/10/04 02:37:00;;;;;;;9.27;2.78;;;12.20;99.90;;;;;;5072408;28;20404;-78
2023/10/04 02:39:27;;;;;;;10.13;3.00;;;12.20;99.90;;;;;;5071931;28;20126;-79
2023/10/04 02:41:53;;;;;;;9.88;2.88;;;12.20;99.90;;;;;;5054649;28;20058;-79
2023/10/04 02:44:19;;;;;;;11.82;3.45;;;12.20;99.90;;;;;;5071857;28;20107;-79
2023/10/04 02:46:48;;;;;;;9.85;3.30;;;12.10;99.90;;;;;;5072182;28;20024;-80
2023/10/04 02:49:14;;;;;;;11.43;3.03;;;12.10;99.90;;;;;;5072157;28;20041;-78
2023/10/04 02:51:40;;;;;;;18.23;3.33;;;12.10;99.90;;;;;;5071618;28;20467;-78
2023/10/04 02:54:06;;;;;;;10.57;3.58;;;12.10;99.90;;;;;;5071877;28;20058;-79
2023/10/04 02:56:41;;;;;;;8.77;2.85;;;12.10;99.90;;;;;;5071222;28;20020;-79
2023/10/04 02:59:07;;;;;;;8.82;2.90;;;12.10;99.90;;;;;;5071292;28;20043;-78
2023/10/04 03:01:32;;;;;;;9.55;3.20;;;12.10;99.90;;;;;;5071568;28;20107;-78
2023/10/04 03:03:58;;;;;;;12.63;2.90;;;12.10;99.90;;;;;;5071841;28;20016;-78
2023/10/04 03:06:25;;;;;;;10.45;3.00;;;12.10;99.90;;;;;;5071036;28;20131;-79
2023/10/04 03:08:51;;;;;;;9.80;2.90;;;12.10;99.90;;;;;;5071890;28;20467;-78
2023/10/04 03:11:19;;;;;;;9.57;2.72;;;12.10;99.90;;;;;;5071777;28;20031;-79
2023/10/04 03:13:47;;;;;;;11.52;2.90;;;12.10;99.90;;;;;;5072312;28;20443;-79
2023/10/04 03:16:12;;;;;;;6.97;2.60;;;12.20;99.90;;;;;;5071877;28;20025;-79
2023/10/04 03:18:39;;;;;;;10.77;2.90;;;12.20;99.90;;;;;;5071241;28;20051;-77
2023/10/04 03:23:40;;;;;;;6.28;2.40;;;12.20;99.90;;;;;;5071159;28;20029;-79
2023/10/04 03:26:06;;;;;;;10.45;2.72;;;12.20;99.90;;;;;;5071461;28;20033;-79
2023/10/04 03:28:33;;;;;;;10.98;3.58;;;12.20;99.90;;;;;;5070710;28;20052;-79
2023/10/04 03:31:04;;;;;;;12.48;3.15;;;12.20;99.90;;;;;;5071583;28;20051;-78
2023/10/04 03:33:35;;;;;;;10.35;3.00;;;12.20;99.90;;;;;;5070658;28;20055;-79
2023/10/04 03:36:04;;;;;;;12.18;2.95;;;12.20;99.90;;;;;;5071341;28;20083;-79
2023/10/04 03:38:33;;;;;;;9.70;3.00;;;12.20;99.90;;;;;;5070591;28;20044;-79
2023/10/04 03:41:03;;;;;;;10.82;3.30;;;12.20;99.90;;;;;;5071440;28;20040;-78
2023/10/04 03:43:30;;;;;;;10.82;2.72;;;12.20;99.90;;;;;;5070495;28;20383;-77
2023/10/04 03:45:55;;;;;;;13.00;3.08;;;12.30;99.90;;;;;;5071226;28;20033;-78
2023/10/04 03:48:23;;;;;;;11.77;3.25;;;12.30;99.90;;;;;;5070329;28;20477;-78
2023/10/04 03:50:51;;;;;;;7.82;3.15;;;12.40;99.90;;;;;;5071093;28;20032;-77
2023/10/04 03:53:20;;;;;;;9.68;3.08;;;12.40;99.90;;;;;;5070999;28;20056;-78
2023/10/04 03:55:47;;;;;;;10.48;3.17;;;12.40;99.90;;;;;;5071223;28;20028;-79
2023/10/04 03:58:20;;;;;;;14.13;3.63;;;12.40;99.90;;;;;;5071244;28;20103;-78
2023/10/04 04:00:46;;;;;;;13.30;3.40;;;12.30;99.90;;;;;;5071288;28;20059;-78
2023/10/04 04:03:12;;;;;;;11.10;3.33;;;12.40;99.90;;;;;;5071464;28;20040;-78
2023/10/04 04:05:44;;;;;;;9.07;3.30;;;12.40;99.90;;;;;;5071076;28;20808;-78
2023/10/04 04:08:12;;;;;;;9.23;3.08;;;12.40;99.90;;;;;;5071761;28;20064;-78
2023/10/04 04:10:38;;;;;;;10.60;2.60;;;12.40;99.90;;;;;;5070533;28;20066;-78
2023/10/04 04:13:05;;;;;;;9.00;3.10;;;12.30;99.90;;;;;;5070923;28;20484;-78
2023/10/04 04:15:34;;;;;;;13.40;3.30;;;12.40;99.90;;;;;;5070530;28;20032;-79
2023/10/04 04:18:06;;;;;;;11.70;2.75;;;12.30;99.90;;;;;;5071401;28;20367;-78
2023/10/04 04:20:35;;;;;;;13.25;2.92;;;12.40;99.90;;;;;;5070316;28;20046;-79
2023/10/04 04:23:04;;;;;;;10.15;3.58;;;12.40;99.90;;;;;;5070998;28;20016;-78
2023/10/04 04:25:29;;;;;;;8.10;2.67;;;12.40;99.90;;;;;;5070240;28;20020;-79
2023/10/04 04:27:56;;;;;;;11.80;3.33;;;12.40;99.90;;;;;;5070743;28;20032;-78
2023/10/04 04:30:28;;;;;;;14.73;3.08;;;12.50;99.90;;;;;;5070337;28;20447;-81
2023/10/04 04:32:57;;;;;;;12.32;3.20;;;12.50;99.90;;;;;;5070982;28;20057;-78
2023/10/04 04:35:48;;;;;;;10.65;2.88;;;12.50;99.90;;;;;;5070481;28;20032;-79
2023/10/04 04:38:24;;;;;;;6.45;2.67;;;12.40;99.90;;;;;;5070989;28;20058;-78
2023/10/04 04:40:54;;;;;;;14.20;3.60;;;12.40;99.90;;;;;;5070660;28;20037;-78
2023/10/04 04:45:51;;;;;;;16.25;3.22;;;12.50;99.90;;;;;;5070595;28;20024;-78
2023/10/04 04:48:27;;;;;;;9.45;2.88;;;12.50;99.90;;;;;;5070963;28;20086;-78
2023/10/04 04:50:54;;;;;;;13.68;3.55;;;12.50;99.90;;;;;;5074422;28;20549;-78
2023/10/04 04:53:22;;;;;;;10.63;3.60;;;12.50;99.90;;;;;;5056531;28;20036;-77
2023/10/04 04:55:49;;;;;;;13.52;3.92;;;12.50;99.90;;;;;;5074263;28;20028;-78
2023/10/04 04:58:15;;;;;;;8.15;3.08;;;12.50;99.90;;;;;;5074703;28;20029;-78
2023/10/04 05:00:44;;;;;;;10.60;3.35;;;12.50;99.90;;;;;;5073568;28;20096;-76
2023/10/04 05:03:11;;;;;;;11.77;3.03;;;12.40;99.90;;;;;;5074427;28;20024;-78
2023/10/04 05:05:39;;;;;;;11.95;3.25;;;12.40;99.90;;;;;;5074009;28;20071;-78
2023/10/04 05:08:05;;;;;;;7.45;2.80;;;12.40;99.90;;;;;;5074907;28;20023;-79
2023/10/04 05:10:37;;;;;;;9.32;3.00;;;12.40;99.90;;;;;;5074035;28;20021;-78
2023/10/04 05:13:05;;;;;;;11.32;3.50;;;12.40;99.90;;;;;;5074305;28;20321;-78
2023/10/04 05:15:34;;;;;;;12.88;3.38;;;12.40;99.90;;;;;;5055632;28;20178;-78
2023/10/04 05:18:00;;;;;;;16.45;3.72;;;12.40;99.90;;;;;;5056251;28;20071;-79
2023/10/04 05:20:31;;;;;;;10.82;3.15;;;12.40;99.90;;;;;;5073469;28;20455;-79
2023/10/04 05:22:58;;;;;;;10.10;2.97;;;12.40;99.90;;;;;;5073667;28;20043;-79
2023/10/04 05:25:23;;;;;;;9.77;3.05;;;12.40;99.90;;;;;;5073586;28;20032;-80
2023/10/04 05:27:50;;;;;;;12.15;3.63;;;12.40;99.90;;;;;;5073207;28;20036;-78
2023/10/04 05:30:18;;;;;;;12.18;3.55;;;12.40;99.90;;;;;;5073438;28;20025;-78
2023/10/04 05:32:45;;;;;;;11.10;3.10;;;12.30;99.90;;;;;;5073066;28;20040;-77
2023/10/04 05:35:12;;;;;;;14.25;3.92;;;12.40;99.90;;;;;;5073680;28;20064;-76
2023/10/04 05:37:44;;;;;;;12.73;3.60;;;12.40;99.90;;;;;;5072946;28;20541;-77
2023/10/04 05:40:16;;;;;;;11.10;3.78;;;12.40;99.90;;;;;;5073695;28;20060;-77
2023/10/04 05:42:46;;;;;;;12.65;3.78;;;12.40;99.90;;;;;;5073034;28;20052;-77
2023/10/04 05:45:12;;;;;;;14.68;4.00;;;12.40;99.90;;;;;;5073538;28;20500;-78
2023/10/04 05:47:41;;;;;;;10.07;3.50;;;12.40;99.90;;;;;;5073030;28;20028;-77
2023/10/04 05:50:10;;;;;;;11.88;3.50;;;12.40;99.90;;;;;;5074375;28;20049;-78
2023/10/04 05:52:37;;;;;;;13.40;3.65;;;12.40;99.90;;;;;;5074411;28;20389;-76
2023/10/04 05:55:03;;;;;;;10.32;3.53;;;12.40;99.90;;;;;;5075138;28;20044;-77
2023/10/04 05:57:29;;;;;;;12.90;3.63;;;12.40;99.90;;;;;;5075003;28;20025;-77
2023/10/04 05:59:55;;;;;;;9.20;3.58;;;12.40;99.90;;;;;;5072663;28;20533;-78
2023/10/04 06:02:22;;;;;;;9.38;3.00;;;12.40;99.90;;;;;;5073088;28;20061;-77
2023/10/04 06:04:48;;;;;;;13.82;4.40;;;12.40;99.90;;;;;;5072359;28;20871;-78
2023/10/04 06:07:14;;;;;;;10.02;3.20;;;12.40;99.90;;;;;;5073545;28;20056;-78
2023/10/04 06:09:44;;;;;;;13.98;4.07;;;12.40;99.90;;;;;;5072471;28;20047;-78
2023/10/04 06:12:09;;;;;;;12.10;3.70;;;12.40;99.90;;;;;;5073032;28;20123;-78
2023/10/04 06:14:36;;;;;;;13.32;3.58;;;12.40;99.90;;;;;;5072214;28;20111;-76
2023/10/04 06:17:04;;;;;;;14.30;3.92;;;12.40;99.90;;;;;;5055378;28;20458;-78
2023/10/04 06:19:30;;;;;;;13.68;4.15;;;12.40;99.90;;;;;;5077234;28;20024;-78
2023/10/04 06:21:56;;;;;;;17.35;3.95;;;12.50;99.90;;;;;;5073018;28;20485;-78
2023/10/04 06:24:22;;;;;;;14.38;4.03;;;12.60;99.90;;;;;;5073550;28;20455;-76
2023/10/04 06:26:48;;;;;;;10.55;3.67;;;12.60;99.90;;;;;;5072750;28;20048;-77
2023/10/04 06:29:14;;;;;;;12.45;3.97;;;12.60;99.90;;;;;;5072998;28;20052;-76
2023/10/04 06:31:41;;;;;;;8.13;3.28;;;12.60;99.90;;;;;;5054020;28;20029;-76
2023/10/04 06:34:07;;;;;;;8.75;3.92;;;12.70;99.90;;;;;;5073167;28;20121;-76
2023/10/04 06:36:33;;;;;;;12.95;4.00;;;12.70;99.90;;;;;;5037260;28;20109;-77
2023/10/04 06:38:59;;;;;;;11.02;3.88;;;12.70;99.90;;;;;;5054804;28;20038;-77
2023/10/04 06:41:26;;;;;;;14.70;3.90;;;12.80;99.90;;;;;;5072593;28;20141;-78
2023/10/04 06:43:52;;;;;;;13.43;4.00;;;12.90;99.90;;;;;;5071856;28;20111;-77
2023/10/04 06:46:18;;;;;;;13.93;3.67;;;12.90;99.90;;;;;;5054681;28;20020;-76
2023/10/04 06:48:47;;;;;;;14.18;3.85;;;12.90;99.90;;;;;;5071655;28;20467;-77
2023/10/04 06:51:12;;;;;;;14.88;4.13;;;12.90;99.90;;;;;;5072186;28;20037;-76
2023/10/04 06:53:43;;;;;;;11.50;3.83;;;13.00;99.90;;;;;;5071510;28;20024;-77
2023/10/04 06:56:09;;;;;;;16.88;3.75;;;13.00;99.90;;;;;;5072101;28;20021;-78
2023/10/04 06:58:35;;;;;;;14.55;4.43;;;13.00;99.90;;;;;;5071169;28;20029;-77
2023/10/04 07:01:01;;;;;;;16.48;3.97;;;13.00;99.90;;;;;;5071753;28;20150;-77
2023/10/04 07:03:29;;;;;;;15.80;4.65;;;13.00;99.90;;;;;;5071569;28;20032;-77
2023/10/04 07:05:55;;;;;;;14.52;3.95;;;13.00;99.90;;;;;;5071680;28;20028;-78
2023/10/04 07:08:20;;;;;;;12.77;4.03;;;12.90;99.90;;;;;;5071632;28;20021;-78
2023/10/04 07:10:46;;;;;;;15.23;4.22;;;12.90;99.90;;;;;;5070908;28;20036;-78
2023/10/04 07:13:12;;;;;;;11.35;3.90;;;12.90;99.90;;;;;;5071001;28;20114;-77
2023/10/04 07:15:39;;;;;;;14.18;4.70;;;12.90;99.90;;;;;;5071813;28;20024;-78
2023/10/04 07:18:07;;;;;;;8.10;3.45;;;12.90;99.90;;;;;;5072076;28;20111;-78
2023/10/04 07:20:34;;;;;;;11.52;3.88;;;12.90;99.90;;;;;;5071225;28;20100;-79
2023/10/04 07:23:03;;;;;;;12.88;3.53;;;12.90;99.90;;;;;;5071425;28;20028;-77
2023/10/04 07:25:32;;;;;;;7.70;3.40;;;12.90;99.90;;;;;;5071126;28;20511;-78
2023/10/04 07:28:02;;;;;;;10.68;3.83;;;12.90;99.90;;;;;;5053506;28;20028;-78
2023/10/04 07:30:33;;;;;;;6.22;3.08;;;12.90;99.90;;;;;;5071619;28;20021;-78
2023/10/04 07:32:59;;;;;;;12.88;3.95;;;13.00;99.90;;;;;;5070993;28;20033;-80
2023/10/04 07:35:26;;;;;;;11.68;3.10;;;13.00;99.90;;;;;;5071710;28;20037;-77
2023/10/04 07:37:53;;;;;;;8.35;3.05;;;13.00;99.90;;;;;;5070578;28;20063;-78
2023/10/04 07:40:22;;;;;;;12.93;3.78;;;13.10;99.90;;;;;;5053356;28;20427;-77
2023/10/04 07:42:52;;;;;;;9.23;3.00;;;13.10;99.90;;;;;;5070505;28;20526;-79
2023/10/04 07:45:18;;;;;;;8.40;3.63;;;13.10;99.90;;;;;;5070884;28;20370;-78
2023/10/04 07:47:45;;;;;;;11.40;3.45;;;13.20;99.90;;;;;;5070589;28;20463;-78
2023/10/04 07:50:15;;;;;;;12.98;3.42;;;13.20;99.90;;;;;;5070623;28;20543;-79
2023/10/04 07:52:44;;;;;;;10.20;2.92;;;13.30;99.90;;;;;;5070546;28;20047;-79
2023/10/04 07:55:22;;;;;;;9.02;3.92;;;13.30;99.90;;;;;;5071174;28;20040;-78
2023/10/04 07:57:49;;;;;;;10.30;3.08;;;13.40;99.90;;;;;;5070768;28;20086;-77
2023/10/04 08:00:16;;;;;;;10.23;3.38;;;13.40;99.90;;;;;;5072411;28;20087;-77
2023/10/04 08:02:50;;;;;;;14.18;3.50;;;13.40;99.90;;;;;;5072764;28;20103;-78
2023/10/04 08:05:18;;;;;;;13.10;3.50;;;13.40;99.90;;;;;;5070902;28;20065;-79
2023/10/04 08:07:44;;;;;;;12.52;3.15;;;13.40;99.90;;;;;;5070016;28;20575;-78
2023/10/04 08:10:12;;;;;;;13.52;3.53;;;13.50;99.90;;;;;;5070682;28;20047;-78
2023/10/04 08:12:38;;;;;;;17.30;3.95;;;13.50;99.90;;;;;;5070073;28;20040;-79
2023/10/04 08:15:07;;;;;;;10.38;3.13;;;13.60;99.90;;;;;;5071251;28;20335;-78
2023/10/04 08:17:33;;;;;;;10.90;3.25;;;13.60;99.90;;;;;;5070710;28;20027;-79
2023/10/04 08:19:59;;;;;;;13.80;3.45;;;13.60;99.90;;;;;;5069729;28;20029;-79
2023/10/04 08:22:25;;;;;;;14.05;3.45;;;13.70;99.90;;;;;;5070560;28;20041;-79
2023/10/04 08:24:53;;;;;;;11.45;3.28;;;13.70;99.90;;;;;;5070264;28;20027;-78
2023/10/04 08:27:18;;;;;;;7.57;2.75;;;13.80;99.90;;;;;;5070694;28;20028;-78
2023/10/04 08:29:44;;;;;;;9.95;2.85;;;13.80;99.90;;;;;;5070166;28;20535;-78
2023/10/04 08:32:10;;;;;;;11.38;2.78;;;13.80;99.90;;;;;;5070303;28;20093;-78
2023/10/04 08:34:37;;;;;;;12.07;2.65;;;13.90;99.90;;;;;;5052356;28;20075;-78
2023/10/04 08:37:03;;;;;;;9.65;2.90;;;13.90;99.90;;;;;;5070482;28;20021;-78
2023/10/04 08:39:29;;;;;;;10.90;2.60;;;13.90;99.90;;;;;;5070708;28;20024;-78
2023/10/04 08:41:55;;;;;;;10.90;2.88;;;13.90;99.90;;;;;;5069524;28;20577;-79
2023/10/04 08:44:21;;;;;;;11.07;2.97;;;13.90;99.90;;;;;;5070384;28;20025;-78
2023/10/04 08:46:47;;;;;;;13.05;2.75;;;13.90;99.90;;;;;;5070121;28;20028;-79
2023/10/04 08:49:15;;;;;;;11.63;2.88;;;13.90;99.90;;;;;;5070146;28;20332;-79
2023/10/04 08:51:59;;;;;;;9.60;2.65;;;13.90;99.90;;;;;;5070110;28;20028;-79
2023/10/04 08:54:27;;;;;;;7.88;2.80;;;13.90;99.90;;;;;;5052369;28;20062;-79
2023/10/04 08:57:03;;;;;;;10.50;2.53;;;13.80;99.90;;;;;;5069917;28;20069;-78
2023/10/04 08:59:29;;;;;;;14.18;3.17;;;13.80;99.90;;;;;;5051941;28;20059;-79
2023/10/04 09:01:57;;;;;;;10.23;2.78;;;13.80;99.90;;;;;;5069717;28;20040;-79
2023/10/04 09:04:24;;;;;;;11.90;2.53;;;13.80;99.90;;;;;;5051882;28;20178;-79
2023/10/04 09:06:52;;;;;;;8.82;2.35;;;13.80;99.90;;;;;;5068370;28;20104;-78
2023/10/04 09:09:18;;;;;;;12.35;3.10;;;13.90;99.90;;;;;;5070218;28;20046;-80
2023/10/04 09:11:45;;;;;;;8.38;2.35;;;13.90;99.90;;;;;;5069651;28;20032;-80
2023/10/04 09:14:14;;;;;;;9.27;2.28;;;13.90;99.90;;;;;;5070325;28;20106;-80
2023/10/04 09:16:40;;;;;;;6.20;1.85;;;14.00;99.90;;;;;;5069685;28;20032;-78
2023/10/04 09:19:18;;;;;;;6.68;2.13;;;14.20;99.90;;;;;;5051773;28;20141;-80
2023/10/04 09:21:45;;;;;;;7.93;2.45;;;14.30;99.90;;;;;;5069630;28;20025;-78
2023/10/04 09:24:13;;;;;;;9.20;2.45;;;14.40;99.90;;;;;;5069996;28;20029;-80
2023/10/04 09:26:49;;;;;;;9.13;2.33;;;14.60;99.90;;;;;;5069389;28;20374;-79
2023/10/04 09:29:15;;;;;;;8.57;2.42;;;14.70;99.90;;;;;;5069681;28;20040;-81
2023/10/04 09:31:50;;;;;;;10.20;2.38;;;14.80;99.90;;;;;;5069170;28;20036;-80
2023/10/04 09:34:16;;;;;;;6.63;2.83;;;14.90;99.90;;;;;;5068911;28;20060;-78
2023/10/04 09:36:42;;;;;;;10.38;2.47;;;15.00;99.90;;;;;;5073079;28;20115;-79
2023/10/04 09:39:13;;;;;;;9.38;2.58;;;15.00;99.90;;;;;;5073628;28;20036;-78
2023/10/04 09:41:41;;;;;;;10.63;2.17;;;15.10;99.90;;;;;;5073576;28;20042;-79
2023/10/04 09:44:30;;;;;;;11.15;3.10;;;15.10;99.90;;;;;;5073164;28;20067;-79
2023/10/04 09:47:03;;;;;;;7.97;2.38;;;15.10;99.90;;;;;;5073214;28;20455;-79
2023/10/04 09:49:34;;;;;;;12.77;3.03;;;15.10;99.90;;;;;;5072917;28;20057;-77
2023/10/04 09:52:01;;;;;;;10.40;2.35;;;15.10;99.90;;;;;;5072405;28;20032;-79
2023/10/04 09:54:34;;;;;;;8.13;2.60;;;15.20;99.90;;;;;;5073158;28;20043;-80
2023/10/04 09:57:03;;;;;;;10.07;2.88;;;15.30;99.90;;;;;;5053753;28;20024;-79
2023/10/04 09:59:29;;;;;;;10.50;2.38;;;15.30;99.90;;;;;;5072401;28;20111;-81
2023/10/04 10:01:56;;;;;;;8.90;2.40;;;15.30;99.90;;;;;;5072188;28;20029;-81
2023/10/04 10:04:27;;;;;;;12.35;2.50;;;15.30;99.90;;;;;;5071795;28;20418;-79
2023/10/04 10:07:09;;;;;;;11.23;2.25;;;15.30;99.90;;;;;;5072289;28;20024;-79
2023/10/04 10:09:46;;;;;;;9.98;2.80;;;15.20;99.90;;;;;;5073538;28;20468;-80
2023/10/04 10:12:13;;;;;;;8.75;2.38;;;15.30;99.90;;;;;;5072501;28;20036;-80
2023/10/04 10:14:41;;;;;;;7.35;2.00;;;15.40;99.90;;;;;;5072761;28;20029;-80
2023/10/04 10:17:10;;;;;;;8.88;2.80;;;15.40;99.90;;;;;;5052434;28;20126;-79
2023/10/04 10:19:36;;;;;;;10.05;2.45;;;15.40;99.90;;;;;;5055950;28;20105;-80
2023/10/04 10:22:03;;;;;;;10.45;2.08;;;15.50;99.90;;;;;;5051951;28;20028;-80
2023/10/04 10:24:29;;;;;;;9.02;2.33;;;15.50;99.90;;;;;;5052404;28;20029;-80
2023/10/04 10:27:02;;;;;;;11.77;2.67;;;15.50;99.90;;;;;;5051743;28;20031;-80
2023/10/04 10:29:30;;;;;;;9.13;2.47;;;15.50;99.90;;;;;;5052289;28;20029;-80
2023/10/04 10:31:56;;;;;;;9.05;2.40;;;15.60;99.90;;;;;;5051822;28;20043;-81
2023/10/04 10:34:22;;;;;;;9.07;2.15;;;15.70;99.90;;;;;;5051794;28;20506;-81
2023/10/04 10:37:07;;;;;;;10.45;2.70;;;15.70;99.90;;;;;;5051355;28;20021;-80
2023/10/04 10:39:44;;;;;;;15.13;2.90;;;15.70;99.90;;;;;;5051984;28;20388;-81
2023/10/04 10:42:11;;;;;;;8.60;2.22;;;15.90;99.90;;;;;;5052036;28;20061;-81
2023/10/04 10:44:39;;;;;;;10.20;2.70;;;15.90;99.90;;;;;;5034122;28;20028;-81
2023/10/04 10:47:14;;;;;;;6.28;2.17;;;16.00;99.90;;;;;;5051974;28;20071;-81
2023/10/04 10:49:40;;;;;;;8.32;2.30;;;16.10;99.90;;;;;;5051667;28;20053;-80
2023/10/04 10:52:21;;;;;;;8.65;2.45;;;16.20;99.90;;;;;;5051851;28;20490;-80
2023/10/04 10:54:48;;;;;;;8.00;2.83;;;16.30;99.90;;;;;;5051476;28;20036;-81
2023/10/04 10:57:13;;;;;;;6.32;1.80;;;16.30;99.90;;;;;;5051191;28;20021;-79
2023/10/04 10:59:40;;;;;;;11.10;2.70;;;16.40;99.90;;;;;;5051491;28;20344;-80
2023/10/04 11:02:06;;;;;;;10.07;2.55;;;16.40;99.90;;;;;;5033539;28;20029;-80
2023/10/04 11:04:32;;;;;;;8.27;2.47;;;16.40;99.90;;;;;;5034327;28;20063;-80
2023/10/04 11:06:58;;;;;;;9.80;2.53;;;16.50;99.90;;;;;;5051567;28;20060;-81
2023/10/04 11:09:24;;;;;;;7.68;2.28;;;16.50;99.90;;;;;;5052147;28;20040;-81
2023/10/04 11:11:51;;;;;;;9.35;2.65;;;16.60;99.90;;;;;;5041948;28;20461;-81
2023/10/04 11:14:19;;;;;;;15.35;3.20;;;16.80;99.90;;;;;;5054371;28;20036;-81
2023/10/04 11:16:45;;;;;;;15.32;3.08;;;16.80;99.90;;;;;;5053338;28;20036;-80
2023/10/04 11:19:12;;;;;;;12.77;3.05;;;16.90;99.90;;;;;;5053672;28;20055;-80
2023/10/04 11:21:39;;;;;;;8.60;2.42;;;16.90;99.90;;;;;;5071321;28;20037;-80
2023/10/04 11:24:05;;;;;;;8.63;2.40;;;16.90;99.90;;;;;;5071059;28;20025;-80
2023/10/04 11:26:31;;;;;;;7.70;2.63;;;16.90;99.90;;;;;;5071491;28;20115;-81
2023/10/04 11:28:58;;;;;;;7.20;1.98;;;16.90;99.90;;;;;;5071058;28;20104;-81
2023/10/04 11:31:24;;;;;;;9.10;2.55;;;17.00;99.90;;;;;;5071215;28;20048;-81
2023/10/04 11:33:51;;;;;;;9.85;2.53;;;17.00;99.90;;;;;;5070935;28;20516;-78
2023/10/04 11:36:22;;;;;;;8.48;2.47;;;17.00;99.90;;;;;;5071310;28;20025;-80
2023/10/04 11:38:50;;;;;;;9.07;2.42;;;16.90;99.90;;;;;;5070648;28;20554;-82
2023/10/04 11:41:16;;;;;;;6.53;2.28;;;16.80;99.90;;;;;;5071169;28;20162;-82
2023/10/04 11:43:44;;;;;;;9.75;2.40;;;16.90;99.90;;;;;;5071534;28;20025;-81
2023/10/04 11:46:10;;;;;;;12.85;2.95;;;16.80;99.90;;;;;;5070930;28;20032;-79
2023/10/04 11:48:36;;;;;;;14.38;3.42;;;16.70;99.90;;;;;;5071128;28;20029;-81
2023/10/04 11:51:04;;;;;;;8.52;2.85;;;16.70;99.90;;;;;;5071092;28;20058;-82
2023/10/04 11:53:32;;;;;;;7.32;2.28;;;16.70;99.90;;;;;;5071312;28;20078;-81
2023/10/04 11:56:06;;;;;;;7.68;2.38;;;16.70;99.90;;;;;;5069871;28;20124;-81
2023/10/04 11:58:45;;;;;;;7.82;2.08;;;16.70;99.90;;;;;;5053313;28;20128;-80
2023/10/04 12:01:23;;;;;;;8.00;2.67;;;16.70;99.90;;;;;;5070978;28;20020;-81
2023/10/04 12:03:58;;;;;;;6.80;1.92;;;16.70;99.90;;;;;;5070371;28;20047;-81
2023/10/04 12:06:24;;;;;;;7.13;2.28;;;16.80;99.90;;;;;;5054156;28;20492;-80
2023/10/04 12:08:50;;;;;;;7.45;2.60;;;16.80;99.90;;;;;;5069957;28;20021;-80
2023/10/04 12:11:23;;;;;;;9.32;2.78;;;16.90;99.90;;;;;;5070915;28;20128;-79
2023/10/04 12:13:49;;;;;;;10.30;2.70;;;16.80;99.90;;;;;;5069997;28;20033;-79
2023/10/04 12:16:17;;;;;;;8.52;2.38;;;16.80;99.90;;;;;;5070621;28;20028;-80
2023/10/04 12:18:43;;;;;;;8.48;2.53;;;16.80;99.90;;;;;;5070408;28;20108;-79
2023/10/04 12:21:09;;;;;;;9.32;2.75;;;16.70;99.90;;;;;;5069724;28;20470;-79
2023/10/04 12:23:35;;;;;;;8.05;2.50;;;16.70;99.90;;;;;;5070163;28;20111;-79
2023/10/04 12:26:01;;;;;;;9.75;2.38;;;16.60;99.90;;;;;;5070088;28;20110;-80
2023/10/04 12:28:29;;;;;;;7.60;2.38;;;16.60;99.90;;;;;;5070608;28;20463;-80
2023/10/04 12:31:01;;;;;;;7.70;3.00;;;16.50;99.90;;;;;;5069664;28;20028;-80
2023/10/04 12:33:29;;;;;;;6.13;2.10;;;16.40;99.90;;;;;;5070292;28;20491;-80
2023/10/04 12:35:56;;;;;;;6.35;2.40;;;16.40;99.90;;;;;;5051996;28;20044;-81
2023/10/04 12:38:25;;;;;;;11.50;2.75;;;16.30;99.90;;;;;;5070206;28;20086;-80
2023/10/04 12:40:51;;;;;;;6.55;2.17;;;16.30;99.90;;;;;;5053575;28;20028;-80
2023/10/04 12:43:17;;;;;;;7.47;2.75;;;16.30;99.90;;;;;;5070188;28;20056;-81
2023/10/04 12:45:46;;;;;;;8.40;2.65;;;16.30;99.90;;;;;;5070242;28;20479;-81
2023/10/04 12:48:16;;;;;;;9.23;2.90;;;16.30;99.90;;;;;;5070158;28;20459;-79
2023/10/04 12:50:46;;;;;;;10.40;2.53;;;16.30;99.90;;;;;;5069581;28;20049;-80